Time;durP1;ratioP1;P1;durP2;ratioP2;P2;SDS_P1;SDS_P2;PMS_P1;PMS_P2;Temp;Humidity;BMP_temperature;BMP_pressure;BME280_temperature;BME280_humidity;BME280_pressure;Samples;Min_cycle;Max_cycle;Signal;HPM_P1;HPM_P2
2022/06/02 00:02:41;;;;;;;4.07;3.17;;;;;;;7.52;53.93;101803.03;4930773;29;20042;-77
2022/06/02 00:06:11;;;;;;;5.53;3.50;;;;;;;7.63;53.47;101794.28;4930248;29;20286;-76
2022/06/02 00:10:13;;;;;;;10.52;3.67;;;;;;;7.73;53.17;101801.06;4908761;29;20070;-77
2022/06/02 00:17:15;;;;;;;3.33;3.03;;;;;;;7.46;52.98;101790.09;4920035;29;20072;-77
2022/06/02 00:24:09;;;;;;;5.13;3.80;;;;;;;7.25;53.20;101791.22;4917202;28;20083;-78
2022/06/02 00:27:55;;;;;;;4.10;3.00;;;;;;;7.05;53.36;101791.44;4923163;28;20105;-75
2022/06/02 00:35:05;;;;;;;5.32;3.75;;;;;;;6.98;53.08;101800.19;4915519;28;20060;-77
2022/06/02 00:38:04;;;;;;;4.90;3.85;;;;;;;6.76;53.19;101799.53;4891486;29;20051;-78
2022/06/02 00:45:26;;;;;;;6.57;3.70;;;;;;;6.70;53.58;101804.78;4903582;29;20051;-77
2022/06/02 00:49:19;;;;;;;4.55;3.45;;;;;;;6.70;53.71;101809.97;4818181;29;20125;-76
2022/06/02 01:00:50;;;;;;;3.05;2.60;;;;;;;6.54;53.68;101811.00;4809219;29;20086;-78
2022/06/02 01:07:59;;;;;;;8.68;2.78;;;;;;;6.48;54.31;101815.38;4823697;29;20093;-78
2022/06/02 01:19:19;;;;;;;6.85;3.40;;;;;;;6.47;54.60;101823.16;4884815;29;20056;-78
2022/06/02 01:23:11;;;;;;;6.05;2.95;;;;;;;6.60;53.88;101829.97;4881548;29;20061;-78
2022/06/02 01:26:44;;;;;;;5.50;2.90;;;;;;;6.47;54.41;101831.81;4883237;29;20056;-77
2022/06/02 01:29:24;;;;;;;;;;;;;;;6.56;54.03;101835.22;4880277;29;20031;-76
2022/06/02 01:32:08;;;;;;;3.22;2.38;;;;;;;6.55;54.39;101836.06;4902653;29;19911;-77
2022/06/02 01:36:01;;;;;;;3.35;2.42;;;;;;;6.60;54.03;101836.91;4890348;29;20055;-76
2022/06/02 01:39:27;;;;;;;5.53;3.28;;;;;;;6.46;54.28;101837.88;4892576;29;20062;-79
2022/06/02 01:42:18;;;;;;;3.97;2.42;;;;;;;6.46;53.95;101835.28;4910903;29;20074;-78
2022/06/02 01:45:46;;;;;;;2.65;2.05;;;;;;;6.50;54.16;101823.97;4922432;29;20028;-77
2022/06/02 01:49:41;;;;;;;2.58;1.70;;;;;;;6.59;54.46;101830.84;4918911;28;20355;-76
2022/06/02 01:56:51;;;;;;;3.67;2.17;;;;;;;6.87;54.16;101833.22;4960912;28;20022;-77
2022/06/02 02:00:04;;;;;;;2.55;2.20;;;;;;;6.89;53.91;101834.94;4930296;28;20528;-75
2022/06/02 02:07:44;;;;;;;3.22;2.28;;;;;;;6.96;53.32;101830.53;4971589;28;20117;-76
2022/06/02 02:15:33;;;;;;;3.60;2.53;;;;;;;6.76;53.88;101825.53;4945505;28;20075;-77
2022/06/02 02:19:16;;;;;;;5.75;3.67;;;;;;;6.80;53.98;101828.97;4947569;28;20046;-77
2022/06/02 02:22:11;;;;;;;4.75;3.13;;;;;;;6.88;53.87;101820.19;4970302;28;20046;-78
2022/06/02 02:25:41;;;;;;;3.40;2.95;;;;;;;6.88;53.87;101830.59;4970019;28;20074;-79
2022/06/02 02:29:04;;;;;;;5.10;3.22;;;;;;;7.04;53.74;101838.25;4895434;29;20062;-79
2022/06/02 02:32:24;;;;;;;5.85;3.40;;;;;;;7.07;54.05;101835.63;4879310;29;20064;-77
2022/06/02 02:35:38;;;;;;;4.90;3.13;;;;;;;7.22;53.59;101832.00;4828641;29;20095;-77
2022/06/02 02:38:43;;;;;;;7.07;3.47;;;;;;;7.28;53.56;101843.19;4875619;29;20053;-78
2022/06/02 02:45:20;;;;;;;3.60;2.83;;;;;;;7.18;53.04;101832.94;4928480;29;20255;-78
2022/06/02 02:48:30;;;;;;;3.30;2.63;;;;;;;7.23;53.09;101838.94;4926122;28;20047;-78
2022/06/02 02:51:33;;;;;;;3.63;2.35;;;;;;;7.26;53.32;101839.75;4925294;29;20161;-76
2022/06/02 02:54:51;;;;;;;6.03;3.00;;;;;;;7.19;53.23;101835.50;4902409;29;20051;-77
2022/06/02 02:57:54;;;;;;;6.50;2.83;;;;;;;7.12;53.00;101824.28;4893336;28;20035;-79
2022/06/02 03:01:08;;;;;;;4.20;3.05;;;;;;;6.75;53.96;101823.78;4931428;29;20054;-77
2022/06/02 03:04:41;;;;;;;5.45;2.53;;;;;;;7.00;53.29;101828.75;4922847;29;20046;-78
2022/06/02 03:07:17;;;;;;;5.38;3.13;;;;;;;7.03;52.88;101833.94;4923935;28;20072;-76
2022/06/02 03:10:06;;;;;;;6.32;2.83;;;;;;;6.96;52.78;101832.28;4944298;28;20050;-77
2022/06/02 03:13:39;;;;;;;4.30;3.20;;;;;;;6.80;53.39;101829.81;4933393;28;20334;-78
2022/06/02 03:20:18;;;;;;;7.47;2.55;;;;;;;6.73;53.23;101833.34;4964146;28;20081;-77
2022/06/02 03:31:17;;;;;;;6.63;2.22;;;;;;;6.61;53.10;101841.22;4968043;28;20070;-77
2022/06/02 03:34:37;;;;;;;4.57;1.90;;;;;;;6.60;53.38;101844.72;4923550;28;20038;-78
2022/06/02 03:37:25;;;;;;;3.45;2.47;;;;;;;6.62;53.41;101848.13;4958318;28;20054;-78
2022/06/02 03:40:55;;;;;;;3.67;2.35;;;;;;;6.64;52.97;101854.19;4971082;28;20299;-78
2022/06/02 03:43:49;;;;;;;4.65;2.30;;;;;;;6.61;52.93;101854.22;4977178;28;20036;-77
2022/06/02 03:46:56;;;;;;;3.35;2.15;;;;;;;6.64;53.11;101854.19;4969161;28;20065;-77
2022/06/02 03:50:42;;;;;;;3.40;1.90;;;;;;;6.72;53.27;101859.34;4968105;28;20067;-77
2022/06/02 03:58:10;;;;;;;4.70;2.10;;;;;;;6.84;53.25;101865.31;4960657;28;20089;-79
2022/06/02 04:01:01;;;;;;;2.65;1.70;;;;;;;6.81;53.39;101874.84;4945305;28;20035;-78
2022/06/02 04:04:06;;;;;;;4.07;1.38;;;;;;;6.90;53.13;101875.63;4957346;28;20057;-79
2022/06/02 04:07:08;;;;;;;2.95;1.88;;;;;;;6.94;53.03;101878.22;4980510;28;20145;-78
2022/06/02 04:10:14;;;;;;;3.90;1.67;;;;;;;7.06;53.03;101876.34;4960698;28;20449;-79
2022/06/02 04:16:28;;;;;;;2.70;1.83;;;;;;;7.43;53.11;101885.53;4979691;28;20987;-77
2022/06/02 04:23:06;;;;;;;1.85;1.33;;;;;;;7.25;53.04;101897.00;4963283;28;20110;-77
2022/06/02 04:25:52;;;;;;;3.97;1.42;;;;;;;7.51;52.74;101899.31;4979911;28;20089;-77
2022/06/02 04:28:24;;;;;;;3.40;1.80;;;;;;;7.60;52.43;101899.25;4971807;28;20110;-78
2022/06/02 04:31:03;;;;;;;4.97;1.52;;;;;;;7.81;52.38;101905.09;4963935;28;20075;-78
2022/06/02 04:33:35;;;;;;;3.35;1.70;;;;;;;7.83;51.90;101901.59;4974735;28;20042;-78
2022/06/02 04:36:17;;;;;;;;;;;;;;;7.97;52.03;101910.97;4962340;28;20386;-77
2022/06/02 04:39:21;;;;;;;7.60;1.30;;;;;;;7.69;51.75;101909.56;4978546;28;19918;-78
2022/06/02 04:43:24;;;;;;;3.83;1.27;;;;;;;8.04;52.17;101917.81;4957199;28;20176;-79
2022/06/02 04:50:33;;;;;;;3.45;1.58;;;;;;;8.06;52.02;101914.31;4963566;28;20085;-77
2022/06/02 04:53:28;;;;;;;2.40;1.58;;;;;;;8.21;51.95;101908.03;4979992;28;20050;-78
2022/06/02 04:56:23;;;;;;;2.65;1.63;;;;;;;8.31;51.48;101916.59;4967665;28;20125;-77
2022/06/02 04:59:10;;;;;;;4.90;1.55;;;;;;;8.08;51.76;101925.56;4969985;28;20047;-78
2022/06/02 05:01:40;;;;;;;2.28;1.63;;;;;;;8.30;51.25;101922.69;4980681;28;20046;-77
2022/06/02 05:04:34;;;;;;;5.25;1.45;;;;;;;8.59;50.82;101921.41;4941385;28;20053;-77
2022/06/02 05:08:06;;;;;;;3.28;0.98;;;;;;;8.79;50.61;101919.38;4954439;28;20081;-78
2022/06/02 05:11:21;;;;;;;3.05;1.27;;;;;;;11.21;46.90;101921.34;4967094;28;20399;-78
2022/06/02 05:14:50;;;;;;;2.00;0.90;;;;;;;11.39;43.53;101921.78;4941375;28;20061;-74
2022/06/02 05:17:58;;;;;;;2.65;1.05;;;;;;;10.65;45.15;101923.59;4975244;28;20057;-77
2022/06/02 05:20:46;;;;;;;4.63;1.30;;;;;;;11.34;45.19;101934.97;4971542;28;20031;-77
2022/06/02 05:24:14;;;;;;;3.78;0.82;;;;;;;13.53;40.64;101926.53;4962420;28;20050;-77
2022/06/02 05:27:02;;;;;;;2.45;0.50;;;;;;;15.50;37.36;101937.19;4953739;28;20121;-78
2022/06/02 05:29:31;;;;;;;2.20;0.57;;;;;;;16.69;34.38;101928.16;4974312;28;20074;-78
2022/06/02 05:32:24;;;;;;;4.38;0.95;;;;;;;17.41;33.16;101932.44;4957141;28;20066;-77
2022/06/02 05:35:12;;;;;;;2.30;0.82;;;;;;;16.94;32.32;101938.38;4966807;28;20043;-79
2022/06/02 05:38:15;;;;;;;8.38;0.68;;;;;;;18.24;31.00;101929.81;4977796;28;20480;-76
2022/06/02 05:41:00;;;;;;;3.38;0.93;;;;;;;18.53;31.91;101929.97;4978816;28;20027;-78
2022/06/02 05:43:46;;;;;;;1.17;0.60;;;;;;;19.94;29.91;101940.09;4947467;28;20162;-77
2022/06/02 05:46:38;;;;;;;1.08;0.50;;;;;;;19.30;29.47;101940.44;4953670;28;20135;-77
2022/06/02 05:49:10;;;;;;;;;;;;;;;19.34;28.75;101935.78;4961715;28;20122;-77
2022/06/02 05:52:06;;;;;;;1.55;0.82;;;;;;;19.98;28.87;101940.75;4970209;28;19938;-75
2022/06/02 05:55:08;;;;;;;6.35;0.80;;;;;;;20.35;29.15;101944.59;4969149;28;20045;-76
2022/06/02 05:57:57;;;;;;;2.00;0.70;;;;;;;19.89;28.55;101958.09;4929553;28;20089;-77
2022/06/02 06:01:05;;;;;;;3.15;1.30;;;;;;;21.63;25.95;101944.84;4980628;28;20058;-76
2022/06/02 06:03:59;;;;;;;1.40;0.77;;;;;;;21.59;26.22;101946.03;4980201;28;20073;-76
2022/06/02 06:06:31;;;;;;;3.00;0.55;;;;;;;22.27;25.80;101951.84;4961019;28;20035;-76
2022/06/02 06:09:06;;;;;;;2.05;0.75;;;;;;;21.47;26.17;101954.84;4954768;28;20077;-78
2022/06/02 06:11:56;;;;;;;1.42;0.60;;;;;;;20.72;27.25;101955.44;4979892;28;20046;-77
2022/06/02 06:14:49;;;;;;;2.38;0.68;;;;;;;19.28;29.62;101958.25;4968718;28;20062;-78
2022/06/02 06:17:37;;;;;;;2.22;0.47;;;;;;;21.10;27.89;101960.03;4975839;28;20081;-77
2022/06/02 06:20:40;;;;;;;1.58;0.63;;;;;;;21.91;25.59;101961.50;4977682;28;20031;-76
2022/06/02 06:23:32;;;;;;;2.92;0.60;;;;;;;21.14;27.06;101961.50;4975076;28;20062;-76
2022/06/02 06:26:19;;;;;;;;;;;;;;;22.33;27.18;101970.91;4966051;28;20065;-80
2022/06/02 06:29:11;;;;;;;5.93;0.30;;;;;;;22.59;25.60;101960.97;4947216;28;20401;-77
2022/06/02 06:31:59;;;;;;;3.80;0.35;;;;;;;21.36;27.99;101969.72;4971775;28;20131;-79
2022/06/02 06:34:33;;;;;;;3.22;0.65;;;;;;;20.11;29.35;101973.53;4949184;28;20114;-80
2022/06/02 06:37:11;;;;;;;1.38;0.20;;;;;;;20.10;28.83;101972.69;4965416;28;20287;-77
2022/06/02 06:40:03;;;;;;;0.95;0.30;;;;;;;18.68;29.94;101974.09;4965509;28;20157;-76
2022/06/02 06:42:51;;;;;;;1.52;0.30;;;;;;;18.75;31.45;101975.47;4960743;28;20629;-79
2022/06/02 06:45:29;;;;;;;2.90;0.50;;;;;;;21.14;26.77;101974.81;4974435;28;20163;-78
2022/06/02 06:48:30;;;;;;;1.73;0.20;;;;;;;22.21;24.74;101971.81;4961431;28;20185;-78
2022/06/02 06:51:17;;;;;;;4.90;0.30;;;;;;;21.70;25.11;101978.03;4931129;28;20090;-78
2022/06/02 06:54:01;;;;;;;2.55;0.32;;;;;;;21.08;26.77;101977.88;4971131;28;20082;-79
2022/06/02 06:56:57;;;;;;;0.85;0.30;;;;;;;21.60;26.45;101981.44;4974626;28;20031;-80
2022/06/02 06:59:35;;;;;;;2.53;0.20;;;;;;;18.87;30.11;101988.00;4956223;28;20369;-78
2022/06/02 07:02:28;;;;;;;6.88;0.40;;;;;;;17.01;33.63;101994.41;4970226;28;20077;-77
2022/06/02 07:05:01;;;;;;;4.78;0.77;;;;;;;16.81;34.19;101995.38;4972785;28;20357;-77
2022/06/02 07:07:44;;;;;;;1.05;0.47;;;;;;;15.45;35.26;101994.50;4976180;28;20214;-79
2022/06/02 07:10:27;;;;;;;4.53;0.95;;;;;;;14.24;36.88;101994.94;4945035;28;20792;-79
2022/06/02 07:13:07;;;;;;;2.72;0.60;;;;;;;14.24;38.12;101997.56;4960783;28;20145;-77
2022/06/02 07:16:10;;;;;;;1.05;0.57;;;;;;;13.77;39.40;102008.91;4949727;28;20165;-77
2022/06/02 07:18:52;;;;;;;4.05;0.77;;;;;;;13.76;39.92;102008.94;4920600;28;20047;-79
2022/06/02 07:22:05;;;;;;;2.08;0.43;;;;;;;13.67;39.75;102005.75;4971083;28;20782;-77
2022/06/02 07:24:44;;;;;;;0.47;0.20;;;;;;;13.72;40.26;102019.56;4942574;28;20054;-78
2022/06/02 07:27:35;;;;;;;2.95;0.40;;;;;;;13.85;40.29;102012.13;4969763;28;20061;-76
2022/06/02 07:30:42;;;;;;;1.90;0.20;;;;;;;14.04;39.58;102027.22;4954513;28;20043;-77
2022/06/02 07:33:23;;;;;;;3.15;0.30;;;;;;;13.28;40.95;102027.16;4957528;28;20038;-77
2022/06/02 07:35:56;;;;;;;3.63;0.30;;;;;;;14.31;39.18;102026.19;4959347;28;20035;-79
2022/06/02 07:39:11;;;;;;;1.50;0.35;;;;;;;16.71;34.33;102031.03;4962648;28;20047;-77
2022/06/02 07:42:07;;;;;;;2.80;0.32;;;;;;;16.94;32.61;102022.91;4963207;28;20043;-78
2022/06/02 07:44:59;;;;;;;2.45;0.43;;;;;;;19.46;29.32;102025.22;4966035;28;20047;-77
2022/06/02 07:47:41;;;;;;;2.72;0.20;;;;;;;18.39;30.32;102042.78;4969370;28;20405;-78
2022/06/02 07:50:24;;;;;;;0.55;0.30;;;;;;;17.08;32.66;102030.13;4959760;28;20394;-78
2022/06/02 07:52:49;;;;;;;4.47;0.70;;;;;;;16.59;33.65;102035.97;4963542;28;20082;-77
2022/06/02 07:55:30;;;;;;;1.92;0.25;;;;;;;15.87;35.05;102038.38;4959361;28;20063;-77
2022/06/02 07:58:24;;;;;;;0.50;0.20;;;;;;;15.12;36.20;102039.72;4959445;28;20066;-78
2022/06/02 08:01:14;;;;;;;2.95;0.40;;;;;;;14.13;37.44;102047.91;4958295;28;20035;-76
2022/06/02 08:03:58;;;;;;;1.38;0.20;;;;;;;13.87;38.52;102052.31;4971368;28;20050;-77
2022/06/02 08:06:37;;;;;;;1.27;0.15;;;;;;;13.94;38.39;102048.56;4971349;28;20036;-78
2022/06/02 08:09:21;;;;;;;2.30;0.20;;;;;;;13.72;39.00;102051.09;4942936;28;20047;-78
2022/06/02 08:12:02;;;;;;;3.95;0.35;;;;;;;14.33;37.33;102055.91;4954786;28;20248;-79
2022/06/02 08:14:45;;;;;;;0.50;0.20;;;;;;;15.52;35.63;102065.31;4938881;28;20054;-76
2022/06/02 08:17:21;;;;;;;2.47;0.20;;;;;;;15.48;35.42;102063.75;4968436;28;20043;-79
2022/06/02 08:20:02;;;;;;;3.15;0.50;;;;;;;15.29;36.83;102068.06;4952123;28;20299;-76
2022/06/02 08:22:46;;;;;;;2.78;0.60;;;;;;;15.29;36.68;102062.78;4969017;28;20047;-77
2022/06/02 08:25:22;;;;;;;2.47;0.20;;;;;;;15.93;35.78;102073.25;4971004;28;20091;-77
2022/06/02 08:28:06;;;;;;;1.77;0.20;;;;;;;15.72;35.72;102074.16;4956327;28;20050;-79
2022/06/02 08:30:49;;;;;;;1.48;0.30;;;;;;;15.65;35.72;102072.72;4961321;28;20353;-76
2022/06/02 08:33:23;;;;;;;4.70;0.20;;;;;;;15.97;35.34;102082.72;4943323;28;20042;-77
2022/06/02 08:36:07;;;;;;;3.10;0.57;;;;;;;17.26;32.11;102077.72;4968746;28;20035;-78
2022/06/02 08:39:02;;;;;;;2.47;0.30;;;;;;;16.16;33.54;102082.78;4957485;28;20486;-78
2022/06/02 08:42:04;;;;;;;3.40;1.63;;;;;;;15.65;35.10;102081.47;4970308;28;20031;-78
2022/06/02 08:45:09;;;;;;;2.38;0.40;;;;;;;15.88;34.21;102093.66;4963114;28;20054;-77
2022/06/02 08:48:17;;;;;;;2.58;0.20;;;;;;;16.91;32.31;102096.13;4960505;28;20141;-78
2022/06/02 08:51:13;;;;;;;3.50;0.22;;;;;;;17.15;32.90;102094.94;4971859;28;20043;-79
2022/06/02 08:53:59;;;;;;;4.05;0.25;;;;;;;16.46;33.00;102105.22;4957742;28;20051;-79
2022/06/02 08:56:48;;;;;;;3.45;0.28;;;;;;;15.49;34.25;102099.69;4979107;28;20042;-76
2022/06/02 08:59:38;;;;;;;0.95;0.17;;;;;;;15.71;34.66;102093.53;4973179;28;20121;-78
2022/06/02 09:02:39;;;;;;;0.80;0.30;;;;;;;17.61;32.16;102102.41;4974129;28;20042;-78
2022/06/02 09:05:11;;;;;;;3.92;0.30;;;;;;;19.00;29.86;102095.94;4974665;28;20041;-78
2022/06/02 09:07:53;;;;;;;2.20;0.30;;;;;;;18.71;28.51;102105.47;4971327;28;20047;-80
2022/06/02 09:10:34;;;;;;;2.40;0.30;;;;;;;18.99;28.71;102102.16;4973692;28;20080;-77
2022/06/02 09:13:02;;;;;;;2.10;0.40;;;;;;;18.21;28.51;102108.13;4983546;28;20050;-78
2022/06/02 09:15:50;;;;;;;2.80;0.25;;;;;;;16.72;31.46;102117.22;4971129;28;20039;-80
2022/06/02 09:18:17;;;;;;;1.35;0.20;;;;;;;16.57;32.78;102113.50;4953401;28;20077;-79
2022/06/02 09:21:01;;;;;;;3.83;0.30;;;;;;;15.87;34.13;102130.66;4964558;28;20059;-77
2022/06/02 09:23:48;;;;;;;1.15;0.22;;;;;;;15.11;35.54;102117.88;4970452;28;20072;-80
2022/06/02 09:26:34;;;;;;;4.80;0.20;;;;;;;17.45;33.34;102118.16;4966555;28;20043;-76
2022/06/02 09:29:23;;;;;;;3.65;0.30;;;;;;;18.29;30.51;102118.31;4976995;28;20043;-74
2022/06/02 09:32:40;;;;;;;1.50;0.20;;;;;;;18.86;29.87;102129.31;4972896;28;20131;-77
2022/06/02 09:35:26;;;;;;;2.58;0.30;;;;;;;20.32;26.86;102120.00;4939635;28;20050;-76
2022/06/02 09:38:15;;;;;;;1.85;0.20;;;;;;;20.34;27.93;102134.03;4985069;28;20038;-78
2022/06/02 09:40:50;;;;;;;8.43;0.30;;;;;;;19.92;27.53;102133.00;4986904;28;20039;-75
2022/06/02 09:44:03;;;;;;;2.78;0.20;;;;;;;19.05;28.87;102130.97;4983760;28;20055;-78
2022/06/02 09:47:01;;;;;;;3.38;0.30;;;;;;;16.96;32.54;102141.66;4917486;29;20084;-76
2022/06/02 09:50:14;;;;;;;1.85;0.20;;;;;;;16.90;33.35;102155.16;4969516;28;20042;-77
2022/06/02 09:53:16;;;;;;;9.23;1.10;;;;;;;17.23;32.93;102150.06;4964833;28;20042;-77
2022/06/02 09:56:14;;;;;;;4.22;0.50;;;;;;;18.23;30.37;102147.75;4973116;28;20063;-78
2022/06/02 09:59:02;;;;;;;1.45;0.20;;;;;;;17.57;30.91;102151.94;4967763;28;20047;-78
2022/06/02 10:02:06;;;;;;;1.13;0.30;;;;;;;16.07;33.48;102161.47;4962653;28;20043;-76
2022/06/02 10:05:06;;;;;;;3.42;1.00;;;;;;;16.92;32.70;102153.28;4946613;28;20043;-77
2022/06/02 10:08:40;;;;;;;2.08;0.30;;;;;;;15.59;34.11;102163.41;4979248;28;20046;-75
2022/06/02 10:11:46;;;;;;;2.42;0.35;;;;;;;15.57;35.61;102166.13;4929444;28;20058;-77
2022/06/02 10:14:38;;;;;;;6.05;1.27;;;;;;;15.70;35.06;102153.28;4953110;28;20047;-78
2022/06/02 10:17:32;;;;;;;1.05;0.20;;;;;;;16.61;34.47;102175.78;4960582;28;20031;-79
2022/06/02 10:20:35;;;;;;;6.90;0.60;;;;;;;16.18;34.40;102159.22;4978347;28;20516;-80
2022/06/02 10:23:22;;;;;;;2.97;0.28;;;;;;;15.59;35.23;102155.50;4983789;28;20047;-78
2022/06/02 10:26:17;;;;;;;4.70;0.20;;;;;;;15.86;33.13;102166.69;4973840;28;20043;-78
2022/06/02 10:29:21;;;;;;;0.55;0.20;;;;;;;17.08;31.54;102162.19;4978029;28;20046;-79
2022/06/02 10:31:48;;;;;;;1.45;0.30;;;;;;;18.02;30.11;102162.91;4991584;28;20031;-79
2022/06/02 10:34:47;;;;;;;3.85;0.43;;;;;;;17.37;31.86;102168.72;4989867;28;20245;-78
2022/06/02 10:37:59;;;;;;;2.10;0.30;;;;;;;16.62;31.46;102178.38;4987481;28;20070;-76
2022/06/02 10:40:45;;;;;;;2.33;0.25;;;;;;;17.42;31.12;102173.78;4971379;28;20035;-78
2022/06/02 10:43:17;;;;;;;5.93;0.70;;;;;;;16.63;31.33;102179.22;4966223;28;20046;-78
2022/06/02 10:45:49;;;;;;;1.95;0.47;;;;;;;17.11;31.83;102175.25;4967926;28;20069;-79
2022/06/02 10:49:02;;;;;;;1.98;0.20;;;;;;;17.38;30.64;102170.47;4972577;28;20043;-78
2022/06/02 10:51:51;;;;;;;1.98;0.68;;;;;;;16.98;32.38;102179.44;4970911;28;20315;-80
2022/06/02 10:54:54;;;;;;;3.10;0.30;;;;;;;17.64;31.02;102174.47;4942632;28;20031;-79
2022/06/02 10:57:57;;;;;;;4.78;0.20;;;;;;;17.95;32.43;102170.31;4966970;28;20047;-77
2022/06/02 11:00:41;;;;;;;2.30;0.30;;;;;;;17.11;30.93;102177.91;4965735;28;20127;-76
2022/06/02 11:03:33;;;;;;;2.35;0.30;;;;;;;18.05;31.30;102171.56;4968469;28;20030;-77
2022/06/02 11:06:23;;;;;;;2.65;0.40;;;;;;;17.29;30.82;102175.31;4975607;28;20038;-78
2022/06/02 11:09:12;;;;;;;2.55;0.28;;;;;;;17.26;30.44;102186.88;4984019;28;20157;-76
2022/06/02 11:12:16;;;;;;;2.05;0.40;;;;;;;16.74;31.58;102179.59;4989268;28;20031;-77
2022/06/02 11:15:09;;;;;;;2.53;0.43;;;;;;;17.93;31.10;102172.16;4978440;28;20062;-77
2022/06/02 11:18:07;;;;;;;2.47;0.30;;;;;;;18.23;30.65;102179.50;4962352;28;20051;-79
2022/06/02 11:20:45;;;;;;;3.65;0.30;;;;;;;19.69;28.39;102175.03;4957013;28;20031;-79
2022/06/02 11:23:40;;;;;;;9.77;0.73;;;;;;;19.86;28.19;102171.38;4964107;28;20152;-76
2022/06/02 11:26:31;;;;;;;4.63;0.30;;;;;;;19.65;27.27;102181.44;4978369;28;20070;-76
2022/06/02 11:29:02;;;;;;;3.33;0.30;;;;;;;18.93;28.76;102179.34;4945774;28;20047;-76
2022/06/02 11:31:40;;;;;;;2.25;0.20;;;;;;;19.05;28.37;102168.06;4966144;28;20046;-78
2022/06/02 11:34:37;;;;;;;3.65;0.40;;;;;;;18.97;29.35;102180.91;4957446;28;20649;-75
2022/06/02 11:37:20;;;;;;;1.92;0.22;;;;;;;18.87;29.38;102181.38;4961535;28;20492;-77
2022/06/02 11:40:24;;;;;;;1.38;0.20;;;;;;;19.13;28.75;102179.09;4974329;28;20608;-78
2022/06/02 11:43:16;;;;;;;4.03;0.50;;;;;;;20.16;29.44;102166.97;4946546;28;20047;-76
2022/06/02 11:45:59;;;;;;;5.30;0.45;;;;;;;20.38;27.74;102164.75;4980574;28;20146;-77
2022/06/02 11:48:58;;;;;;;1.63;0.28;;;;;;;20.30;27.11;102167.88;4974653;28;20359;-77
2022/06/02 11:51:57;;;;;;;1.05;0.68;;;;;;;18.91;28.37;102166.19;4989020;28;20066;-77
2022/06/02 11:54:52;;;;;;;0.80;0.30;;;;;;;18.27;28.72;102159.88;4984118;28;20066;-77
2022/06/02 11:57:29;;;;;;;0.65;0.20;;;;;;;18.36;29.85;102163.81;4971241;28;20039;-77
2022/06/02 11:59:57;;;;;;;2.80;0.20;;;;;;;19.36;29.41;102176.94;4974044;28;20035;-74
2022/06/02 12:02:52;;;;;;;7.70;1.08;;;;;;;18.46;29.49;102162.41;4972619;28;20042;-77
2022/06/02 12:05:46;;;;;;;1.52;0.20;;;;;;;19.87;28.22;102156.31;4971223;28;20031;-79
2022/06/02 12:08:46;;;;;;;0.57;0.20;;;;;;;20.12;28.12;102169.81;4988541;28;20046;-76
2022/06/02 12:11:54;;;;;;;3.13;0.50;;;;;;;18.98;29.57;102167.53;4978062;28;20027;-77
2022/06/02 12:14:27;;;;;;;0.95;0.15;;;;;;;19.62;29.25;102157.75;4961845;28;20042;-76
2022/06/02 12:17:27;;;;;;;0.93;0.20;;;;;;;19.20;29.69;102164.56;4974400;28;20038;-77
2022/06/02 12:20:22;;;;;;;1.45;0.20;;;;;;;19.62;28.42;102157.75;4974440;28;20700;-78
2022/06/02 12:23:25;;;;;;;0.70;0.20;;;;;;;20.08;26.54;102170.97;4972731;28;20042;-76
2022/06/02 12:26:33;;;;;;;1.85;0.20;;;;;;;20.68;26.50;102163.78;4975701;28;20066;-77
2022/06/02 12:29:20;;;;;;;2.38;0.50;;;;;;;21.50;25.94;102170.09;4918309;29;20044;-79
2022/06/02 12:31:49;;;;;;;1.50;0.28;;;;;;;19.46;26.91;102162.22;4973037;28;20065;-79
2022/06/02 12:34:40;;;;;;;3.80;0.30;;;;;;;18.97;27.53;102167.66;4976340;28;20043;-79
2022/06/02 12:37:38;;;;;;;1.30;0.20;;;;;;;19.36;27.43;102166.34;4975378;28;20034;-77
2022/06/02 12:40:13;;;;;;;1.13;0.30;;;;;;;18.84;28.43;102176.22;4962588;28;20041;-79
2022/06/02 12:42:45;;;;;;;1.35;0.10;;;;;;;18.51;29.30;102170.09;4972641;28;20063;-79
2022/06/02 12:45:38;;;;;;;2.95;0.20;;;;;;;18.97;28.88;102175.59;4977447;28;20090;-78
2022/06/02 12:48:28;;;;;;;2.30;0.40;;;;;;;18.62;29.11;102173.03;4981984;28;20085;-76
2022/06/02 12:51:00;;;;;;;1.00;0.28;;;;;;;18.46;29.49;102173.84;4986454;28;20035;-78
2022/06/02 12:53:45;;;;;;;2.58;0.30;;;;;;;18.56;28.12;102173.34;4986141;28;20046;-77
2022/06/02 12:56:25;;;;;;;2.95;0.63;;;;;;;19.41;26.65;102174.88;4965360;28;20062;-77
2022/06/02 12:59:43;;;;;;;0.40;0.30;;;;;;;19.20;27.51;102171.66;4985728;28;20047;-76
2022/06/02 13:02:54;;;;;;;3.45;0.25;;;;;;;19.26;28.60;102172.16;4970242;28;21456;-79
2022/06/02 13:05:45;;;;;;;3.95;0.20;;;;;;;19.22;27.93;102167.13;4971285;28;20089;-77
2022/06/02 13:08:40;;;;;;;2.65;0.20;;;;;;;19.98;27.04;102169.78;4985106;28;20054;-77
2022/06/02 13:11:12;;;;;;;3.20;0.98;;;;;;;20.09;26.03;102174.47;4976270;28;20071;-77
2022/06/02 13:13:48;;;;;;;3.15;0.20;;;;;;;20.50;25.30;102176.41;4973195;28;20043;-79
2022/06/02 13:16:46;;;;;;;3.95;0.20;;;;;;;20.34;26.32;102165.88;4972192;28;20079;-78
2022/06/02 13:19:26;;;;;;;9.27;0.73;;;;;;;20.92;24.70;102170.22;4976794;28;20038;-77
2022/06/02 13:22:12;;;;;;;3.10;0.30;;;;;;;20.72;25.86;102162.66;4964613;28;20278;-78
2022/06/02 13:24:56;;;;;;;8.52;0.38;;;;;;;20.54;25.51;102178.78;4966008;28;20098;-74
2022/06/02 13:28:07;;;;;;;1.58;0.20;;;;;;;20.06;25.56;102172.84;4989148;28;20035;-77
2022/06/02 13:31:13;;;;;;;1.80;0.13;;;;;;;20.75;24.99;102165.09;4985379;28;20035;-79
2022/06/02 13:34:21;;;;;;;1.90;0.30;;;;;;;19.51;27.30;102170.75;4965014;28;20046;-77
2022/06/02 13:37:16;;;;;;;2.08;0.20;;;;;;;20.03;26.95;102172.16;4959805;28;20422;-77
2022/06/02 13:39:45;;;;;;;3.95;0.52;;;;;;;19.41;26.36;102170.44;4961332;28;20057;-76
2022/06/02 13:42:48;;;;;;;5.10;0.52;;;;;;;18.96;26.58;102176.53;4978861;28;20050;-75
2022/06/02 13:46:05;;;;;;;2.88;0.25;;;;;;;19.91;25.31;102176.41;4997992;28;20247;-76
2022/06/02 13:49:09;;;;;;;2.05;0.15;;;;;;;19.58;25.89;102177.44;4957434;28;20102;-76
2022/06/02 13:52:04;;;;;;;3.25;0.20;;;;;;;19.17;26.46;102180.63;4937268;28;20061;-77
2022/06/02 13:58:22;;;;;;;1.55;0.20;;;;;;;19.07;27.54;102182.94;4994265;28;20070;-74
2022/06/02 14:01:10;;;;;;;1.73;0.25;;;;;;;20.12;26.32;102175.13;4978342;28;20026;-77
2022/06/02 14:07:49;;;;;;;1.05;0.57;;;;;;;20.35;25.76;102166.72;4990729;28;20050;-79
2022/06/02 14:10:45;;;;;;;1.58;0.68;;;;;;;19.91;25.21;102168.47;4974899;28;20035;-77
2022/06/02 14:13:44;;;;;;;9.70;0.65;;;;;;;19.34;26.92;102163.75;4973937;28;20061;-78
2022/06/02 14:16:42;;;;;;;1.58;0.30;;;;;;;19.79;26.76;102179.78;4962344;28;20950;-75
2022/06/02 14:19:31;;;;;;;3.10;0.65;;;;;;;18.59;28.56;102170.56;4988632;28;20349;-78
2022/06/02 14:22:31;;;;;;;4.35;0.45;;;;;;;19.26;27.32;102177.47;4988980;28;20092;-78
2022/06/02 14:25:13;;;;;;;4.78;0.30;;;;;;;19.17;27.94;102161.22;4933241;28;20058;-76
2022/06/02 14:28:37;;;;;;;2.90;0.40;;;;;;;19.35;27.94;102173.44;4971743;28;20035;-74
2022/06/02 14:31:21;;;;;;;4.57;0.60;;;;;;;19.47;27.62;102166.56;4912956;29;20061;-78
2022/06/02 14:34:24;;;;;;;6.63;0.30;;;;;;;19.97;26.25;102172.53;4920048;29;20048;-75
2022/06/02 14:37:01;;;;;;;3.08;0.38;;;;;;;19.61;26.55;102165.78;4972694;28;20316;-79
2022/06/02 14:39:41;;;;;;;3.30;0.35;;;;;;;19.44;27.69;102169.41;4976048;28;20061;-78
2022/06/02 14:43:09;;;;;;;1.95;0.30;;;;;;;19.04;28.01;102171.66;4970799;28;20057;-76
2022/06/02 14:46:04;;;;;;;1.30;0.40;;;;;;;19.03;28.35;102157.56;4973801;28;20030;-77
2022/06/02 14:49:11;;;;;;;1.88;0.30;;;;;;;19.40;29.57;102173.16;4969013;28;20062;-76
2022/06/02 14:51:40;;;;;;;2.17;0.30;;;;;;;18.80;28.45;102169.38;4951812;28;20051;-78
2022/06/02 14:54:18;;;;;;;1.50;0.57;;;;;;;18.39;28.66;102169.81;4969017;28;20043;-79
2022/06/02 14:56:59;;;;;;;5.20;1.05;;;;;;;18.88;28.05;102172.50;4985473;28;20393;-77
2022/06/02 14:59:59;;;;;;;2.45;0.40;;;;;;;18.97;28.13;102178.25;4972258;28;20501;-78
2022/06/02 15:02:47;;;;;;;1.70;0.52;;;;;;;18.75;27.37;102181.19;4973240;28;20039;-78
2022/06/02 15:05:51;;;;;;;1.80;0.30;;;;;;;18.33;26.38;102186.03;4981564;28;20039;-77
2022/06/02 15:08:52;;;;;;;3.03;0.88;;;;;;;17.76;26.43;102193.31;4974361;28;20509;-77
2022/06/02 15:11:37;;;;;;;;;;;;;;;17.19;28.38;102191.59;4986849;28;20035;-76